Air Quality Table

TIMESTAMP NO2 SO2 PM10 PM2.5 CO TEMP HUM AIRPRES WS WD NO
2021-02-25 03:00 0 ug/m3 1.03 ug/m3 36.67 ug/m3 32.58 ug/m3 N/A N/A N/A 1,027.59 mbar 2.35 m/s 195.97 Deg 0 ug/m3
2021-02-25 02:00 0 ug/m3 1.2 ug/m3 37.67 ug/m3 32.17 ug/m3 N/A N/A N/A 1,028.03 mbar 2.61 m/s 177.27 Deg 0 ug/m3
2021-02-25 01:00 0 ug/m3 1.22 ug/m3 38.17 ug/m3 32.59 ug/m3 N/A N/A N/A 1,028.39 mbar 2.67 m/s 172.82 Deg 0 ug/m3
2021-02-25 00:00 0 ug/m3 1.13 ug/m3 41.3 ug/m3 34.64 ug/m3 N/A N/A N/A 1,028.35 mbar 2.72 m/s 172 Deg 0 ug/m3
2021-02-24 23:00 107.11 ug/m3 0.94 ug/m3 44.96 ug/m3 37.09 ug/m3 N/A N/A N/A 1,028.61 mbar 2.3 m/s 191.45 Deg 0 ug/m3
2021-02-24 22:00 113.54 ug/m3 0.89 ug/m3 49.61 ug/m3 40.04 ug/m3 N/A N/A N/A 1,028.81 mbar 2.15 m/s 225.13 Deg 0 ug/m3
2021-02-24 21:00 116.9 ug/m3 0.6 ug/m3 47 ug/m3 34.95 ug/m3 N/A N/A N/A 1,028.60 mbar 1.74 m/s 243.28 Deg 0 ug/m3
2021-02-24 20:00 64.55 ug/m3 0.41 ug/m3 32.82 ug/m3 25.65 ug/m3 N/A N/A N/A 1,028.18 mbar 1.77 m/s 285.15 Deg 0 ug/m3
2021-02-24 19:00 24.04 ug/m3 0.32 ug/m3 24.67 ug/m3 20.59 ug/m3 N/A N/A N/A 1,028.20 mbar 2.09 m/s 280.6 Deg 0 ug/m3
2021-02-24 18:00 14.91 ug/m3 0.43 ug/m3 19.74 ug/m3 15.36 ug/m3 N/A N/A N/A 1,028.07 mbar 2 m/s 281.73 Deg 0 ug/m3
2021-02-24 17:00 15.43 ug/m3 0.74 ug/m3 22.03 ug/m3 14.47 ug/m3 N/A N/A N/A 1,027.83 mbar 1.53 m/s 314.58 Deg 0 ug/m3
2021-02-24 16:00 7.35 ug/m3 0.53 ug/m3 19.32 ug/m3 13.75 ug/m3 N/A N/A N/A 1,028.06 mbar 1.83 m/s 329.58 Deg 0.81 ug/m3
2021-02-24 15:00 8.59 ug/m3 0.69 ug/m3 21.68 ug/m3 15.42 ug/m3 N/A N/A N/A 1,028.35 mbar 2.39 m/s 340.37 Deg 2.84 ug/m3
2021-02-24 14:00 19.27 ug/m3 1.18 ug/m3 25.42 ug/m3 17.52 ug/m3 N/A N/A N/A 1,028.84 mbar 1.72 m/s 311.55 Deg 9.17 ug/m3
2021-02-24 13:00 11.05 ug/m3 0.86 ug/m3 26.55 ug/m3 16.85 ug/m3 N/A N/A N/A 1,029.57 mbar 1.46 m/s 318.02 Deg 2.1 ug/m3
2021-02-24 12:00 16.8 ug/m3 1.03 ug/m3 33.18 ug/m3 19.93 ug/m3 N/A N/A N/A 1,030.40 mbar 2.32 m/s 342.65 Deg 4.09 ug/m3
2021-02-24 11:00 19.64 ug/m3 1.02 ug/m3 24.46 ug/m3 18.56 ug/m3 N/A N/A N/A 1,030.98 mbar 1.38 m/s 238.5 Deg 3.16 ug/m3
2021-02-24 10:00 19.94 ug/m3 1.23 ug/m3 19.61 ug/m3 15.72 ug/m3 N/A N/A N/A 1,031.12 mbar 1.52 m/s 306.07 Deg 4.98 ug/m3
2021-02-24 09:00 77.03 ug/m3 2.01 ug/m3 47.92 ug/m3 34.94 ug/m3 N/A N/A N/A 1,030.95 mbar 1.64 m/s 287.17 Deg 123.46 ug/m3
2021-02-24 08:00 134.79 ug/m3 3.08 ug/m3 79.34 ug/m3 56 ug/m3 N/A N/A N/A 1,030.61 mbar 0.81 m/s 272.73 Deg 349.02 ug/m3
2021-02-24 07:00 107.41 ug/m3 2.08 ug/m3 50.14 ug/m3 39.94 ug/m3 N/A N/A N/A 1,030.17 mbar 1.04 m/s 266.17 Deg 201.62 ug/m3
2021-02-24 06:00 93.64 ug/m3 1.6 ug/m3 45.72 ug/m3 39.83 ug/m3 N/A N/A N/A 1,029.97 mbar 2.35 m/s 192.92 Deg 136.13 ug/m3

It is to be noted that the data is provisional and subject to quality assurance procedures. For validated data kindly refer your request to contact.air@era.org.mt